Time;durP1;ratioP1;P1;durP2;ratioP2;P2;SDS_P1;SDS_P2;PMS_P1;PMS_P2;Temp;Humidity;BMP_temperature;BMP_pressure;BME280_temperature;BME280_humidity;BME280_pressure;Samples;Min_cycle;Max_cycle;Signal;HPM_P1;HPM_P2
2022/02/21 00:01:49;;;;;;;3.17;0.80;;;9.10;99.90;;;;;;5030810;28;20100;-84
2022/02/21 00:04:15;;;;;;;2.93;0.70;;;9.30;99.90;;;;;;5039521;28;20036;-84
2022/02/21 00:06:43;;;;;;;1.17;0.70;;;9.30;99.90;;;;;;5050285;28;20021;-84
2022/02/21 00:09:09;;;;;;;2.40;0.80;;;9.30;99.90;;;;;;5050399;28;20028;-84
2022/02/21 00:11:35;;;;;;;2.20;0.60;;;9.30;99.90;;;;;;5050573;28;20403;-84
2022/02/21 00:14:00;;;;;;;0.77;0.60;;;9.30;99.90;;;;;;5049675;28;20167;-83
2022/02/21 00:16:26;;;;;;;0.63;0.63;;;9.20;99.90;;;;;;5050407;28;20094;-83
2022/02/21 00:18:51;;;;;;;2.00;0.80;;;9.20;99.90;;;;;;5050229;28;20025;-84
2022/02/21 00:21:18;;;;;;;0.67;0.67;;;9.30;99.90;;;;;;5050191;28;20377;-83
2022/02/21 00:23:43;;;;;;;1.80;0.70;;;9.30;99.90;;;;;;5050153;28;20032;-83
2022/02/21 00:26:09;;;;;;;1.13;0.73;;;9.30;99.90;;;;;;5050352;28;20025;-83
2022/02/21 00:28:34;;;;;;;0.77;0.70;;;9.20;99.90;;;;;;5050212;28;20025;-84
2022/02/21 00:31:00;;;;;;;0.80;0.60;;;9.20;99.90;;;;;;5050334;28;20037;-84
2022/02/21 00:33:26;;;;;;;1.07;0.60;;;9.20;99.90;;;;;;5049867;28;20824;-83
2022/02/21 00:35:51;;;;;;;1.67;0.70;;;9.20;99.90;;;;;;5050472;28;20091;-84
2022/02/21 00:38:17;;;;;;;0.50;0.50;;;9.30;99.90;;;;;;5049988;28;20032;-84
2022/02/21 00:40:42;;;;;;;1.20;0.63;;;9.30;99.90;;;;;;5050472;28;20083;-84
2022/02/21 00:43:08;;;;;;;1.33;0.60;;;9.20;99.90;;;;;;5050183;28;20017;-84
2022/02/21 00:45:34;;;;;;;1.10;0.70;;;9.20;99.90;;;;;;5045451;28;20041;-84
2022/02/21 00:47:59;;;;;;;2.20;0.80;;;9.20;99.90;;;;;;5042485;28;20112;-84
2022/02/21 00:50:25;;;;;;;0.77;0.70;;;9.30;99.90;;;;;;5033968;28;20029;-84
2022/02/21 00:52:51;;;;;;;0.63;0.60;;;9.20;99.90;;;;;;5033917;28;20017;-85
2022/02/21 00:55:17;;;;;;;0.93;0.80;;;9.20;99.90;;;;;;5034049;28;20057;-84
2022/02/21 00:57:42;;;;;;;0.87;0.70;;;9.30;99.90;;;;;;5048843;28;20541;-85
2022/02/21 01:00:09;;;;;;;2.23;0.70;;;9.30;99.90;;;;;;5053734;28;20033;-84
2022/02/21 01:02:35;;;;;;;1.07;0.70;;;9.30;99.90;;;;;;5053545;28;20048;-84
2022/02/21 01:05:02;;;;;;;2.00;0.70;;;9.30;99.90;;;;;;5053559;28;20116;-84
2022/02/21 01:07:28;;;;;;;2.00;0.87;;;9.20;99.90;;;;;;5053489;28;20172;-74
2022/02/21 01:09:53;;;;;;;0.80;0.70;;;9.20;99.90;;;;;;5055639;28;20072;-74
2022/02/21 01:12:19;;;;;;;1.47;0.70;;;9.20;99.90;;;;;;5055549;28;20464;-73
2022/02/21 01:14:44;;;;;;;1.50;0.70;;;9.20;99.90;;;;;;5055443;28;20028;-73
2022/02/21 01:17:10;;;;;;;0.80;0.67;;;9.20;99.90;;;;;;5055349;28;20103;-73
2022/02/21 01:19:36;;;;;;;1.10;0.87;;;9.20;99.90;;;;;;5055625;28;20029;-73
2022/02/21 01:22:03;;;;;;;0.90;0.80;;;9.30;99.90;;;;;;5056224;28;20517;-74
2022/02/21 01:24:30;;;;;;;8.07;1.00;;;9.40;99.90;;;;;;5055990;28;20021;-73
2022/02/21 01:26:55;;;;;;;1.60;0.80;;;9.40;99.90;;;;;;5055362;28;20037;-73
2022/02/21 01:29:21;;;;;;;2.33;1.10;;;9.40;99.90;;;;;;5055546;28;20485;-72
2022/02/21 01:31:47;;;;;;;1.27;0.90;;;9.40;99.90;;;;;;5055380;28;20105;-72
2022/02/21 01:34:13;;;;;;;1.83;0.90;;;9.30;99.90;;;;;;5055364;28;20469;-72
2022/02/21 01:36:40;;;;;;;4.17;0.90;;;9.30;99.90;;;;;;5055334;28;20048;-73
2022/02/21 01:39:06;;;;;;;1.90;0.80;;;9.30;99.90;;;;;;5055255;28;20025;-73
2022/02/21 01:41:32;;;;;;;2.20;0.80;;;9.40;99.90;;;;;;5055199;28;20085;-73
2022/02/21 01:44:12;;;;;;;1.30;0.90;;;9.40;99.90;;;;;;5055495;28;20029;-73
2022/02/21 01:46:39;;;;;;;1.93;0.90;;;9.40;99.90;;;;;;5038576;28;20072;-73
2022/02/21 01:49:06;;;;;;;1.80;0.90;;;9.30;99.90;;;;;;5035022;28;20100;-73
2022/02/21 01:51:33;;;;;;;1.57;0.80;;;9.40;99.90;;;;;;5034974;28;20025;-73
2022/02/21 01:54:00;;;;;;;2.17;0.70;;;9.40;99.90;;;;;;5035137;28;20021;-73
2022/02/21 01:56:26;;;;;;;2.30;1.00;;;9.40;99.90;;;;;;5034467;28;20029;-72
2022/02/21 01:58:52;;;;;;;1.60;1.00;;;9.40;99.90;;;;;;5033944;28;20343;-73
2022/02/21 02:01:19;;;;;;;1.70;1.00;;;9.50;99.90;;;;;;5035370;28;20028;-73
2022/02/21 02:03:46;;;;;;;2.80;0.93;;;9.50;99.90;;;;;;5034026;28;20360;-73
2022/02/21 02:06:12;;;;;;;3.40;1.13;;;9.40;99.90;;;;;;5034747;28;20382;-72
2022/02/21 02:08:37;;;;;;;2.73;1.00;;;9.50;99.90;;;;;;5034553;28;20017;-73
2022/02/21 02:11:03;;;;;;;2.23;0.90;;;9.50;99.90;;;;;;5034629;28;20041;-74
2022/02/21 02:13:28;;;;;;;2.50;0.80;;;9.50;99.90;;;;;;5034596;28;20458;-73
2022/02/21 02:15:56;;;;;;;1.57;0.90;;;9.50;99.90;;;;;;5034500;28;20080;-74
2022/02/21 02:18:22;;;;;;;2.10;1.00;;;9.50;99.90;;;;;;5034762;28;20034;-74
2022/02/21 02:20:48;;;;;;;1.17;0.83;;;9.50;99.90;;;;;;5034366;28;20171;-73
2022/02/21 02:23:14;;;;;;;3.60;0.93;;;9.50;99.90;;;;;;5034318;28;20033;-74
2022/02/21 02:25:40;;;;;;;2.50;0.90;;;9.60;99.90;;;;;;5034279;28;20033;-74
2022/02/21 02:28:06;;;;;;;1.90;0.83;;;9.50;99.90;;;;;;5034186;28;20116;-73
2022/02/21 02:30:32;;;;;;;1.43;0.80;;;9.60;99.90;;;;;;5034086;28;20430;-73
2022/02/21 02:32:58;;;;;;;2.60;1.00;;;9.60;99.90;;;;;;5034150;28;20079;-73
2022/02/21 02:35:27;;;;;;;3.93;1.47;;;9.70;99.90;;;;;;5034053;28;20029;-73
2022/02/21 02:37:53;;;;;;;2.50;0.97;;;9.70;99.90;;;;;;5034081;28;20025;-73
2022/02/21 02:40:18;;;;;;;2.20;1.00;;;9.70;99.90;;;;;;5034053;28;20382;-73
2022/02/21 02:42:44;;;;;;;2.17;0.90;;;9.70;99.90;;;;;;5033875;28;20044;-73
2022/02/21 02:45:10;;;;;;;3.97;1.10;;;9.70;99.90;;;;;;5033851;28;20060;-73
2022/02/21 02:47:35;;;;;;;1.07;0.80;;;9.80;99.90;;;;;;5038160;28;20103;-75
2022/02/21 02:50:01;;;;;;;3.70;1.00;;;9.90;99.90;;;;;;5043985;28;20026;-75
2022/02/21 02:52:26;;;;;;;2.07;1.10;;;9.80;99.90;;;;;;5031097;28;20037;-75
2022/02/21 02:54:52;;;;;;;2.60;0.97;;;9.90;99.90;;;;;;5030907;28;20035;-76
2022/02/21 02:57:17;;;;;;;2.80;1.27;;;9.90;99.90;;;;;;5031199;28;20029;-76
2022/02/21 02:59:43;;;;;;;1.00;0.83;;;9.90;99.90;;;;;;5031079;28;20742;-76
2022/02/21 03:02:09;;;;;;;3.43;0.90;;;9.90;99.90;;;;;;5045994;28;20043;-76
2022/02/21 03:04:34;;;;;;;3.00;0.80;;;9.90;99.90;;;;;;5050426;28;20040;-76
2022/02/21 03:07:00;;;;;;;2.10;0.80;;;10.00;99.90;;;;;;5049121;28;20068;-76
2022/02/21 03:09:27;;;;;;;1.60;0.87;;;10.00;99.90;;;;;;5049910;28;20025;-76
2022/02/21 03:11:53;;;;;;;1.20;0.90;;;10.00;99.90;;;;;;5050650;28;20029;-76
2022/02/21 03:14:20;;;;;;;0.80;0.73;;;10.00;99.90;;;;;;5050501;28;20029;-76
2022/02/21 03:16:46;;;;;;;1.37;0.90;;;10.00;99.90;;;;;;5050190;28;20037;-75
2022/02/21 03:19:12;;;;;;;0.80;0.70;;;10.00;99.90;;;;;;5050397;28;20109;-75
2022/02/21 03:21:37;;;;;;;2.10;0.80;;;10.10;99.90;;;;;;5050465;28;20513;-75
2022/02/21 03:24:03;;;;;;;2.77;0.80;;;10.10;99.90;;;;;;5050206;28;20032;-75
2022/02/21 03:26:29;;;;;;;4.27;1.20;;;10.10;99.90;;;;;;5050315;28;20458;-75
2022/02/21 03:28:54;;;;;;;2.13;1.07;;;10.10;99.90;;;;;;5050754;28;20196;-75
2022/02/21 03:31:20;;;;;;;1.63;0.87;;;10.10;99.90;;;;;;5061846;28;20029;-76
2022/02/21 03:33:46;;;;;;;2.07;0.97;;;10.10;99.90;;;;;;5056522;28;20460;-76
2022/02/21 03:36:12;;;;;;;1.77;0.80;;;10.10;99.90;;;;;;5065394;28;20025;-75
2022/02/21 03:38:37;;;;;;;3.17;0.83;;;10.10;99.90;;;;;;5070137;28;20033;-73
2022/02/21 03:41:03;;;;;;;3.63;0.90;;;10.10;99.90;;;;;;5073331;28;20526;-73
2022/02/21 03:43:28;;;;;;;1.37;0.80;;;10.10;99.90;;;;;;5073199;28;20088;-73
2022/02/21 03:45:54;;;;;;;2.67;0.90;;;10.20;99.90;;;;;;5072978;28;20051;-73
2022/02/21 03:48:19;;;;;;;3.83;0.90;;;10.20;99.90;;;;;;5073255;28;20024;-73
2022/02/21 03:50:45;;;;;;;1.10;0.80;;;10.20;99.90;;;;;;5073361;28;20027;-74
2022/02/21 03:53:11;;;;;;;2.13;0.93;;;10.20;99.90;;;;;;5073043;28;20476;-83
2022/02/21 03:55:36;;;;;;;3.13;0.83;;;10.20;99.90;;;;;;5070280;28;20029;-76
2022/02/21 03:58:02;;;;;;;1.90;0.90;;;10.20;99.90;;;;;;5051359;28;20099;-76
2022/02/21 04:00:28;;;;;;;1.57;0.87;;;10.20;99.90;;;;;;5062776;28;20405;-82
2022/02/21 04:02:53;;;;;;;2.67;0.90;;;10.20;99.90;;;;;;5055647;28;20538;-83
2022/02/21 04:05:19;;;;;;;2.00;0.80;;;10.10;99.90;;;;;;5053746;28;20035;-83
2022/02/21 04:07:44;;;;;;;0.97;0.70;;;10.00;99.90;;;;;;5052532;28;20437;-83
2022/02/21 04:10:14;;;;;;;0.97;0.77;;;10.00;99.90;;;;;;5052432;28;20024;-83
2022/02/21 04:12:40;;;;;;;1.37;0.60;;;10.00;99.90;;;;;;5052345;28;20066;-82
2022/02/21 04:15:07;;;;;;;2.47;0.90;;;10.00;99.90;;;;;;5050933;28;20036;-82
2022/02/21 04:17:43;;;;;;;1.63;0.93;;;9.90;99.90;;;;;;5052340;28;20078;-83
2022/02/21 04:20:11;;;;;;;3.87;1.07;;;9.90;99.90;;;;;;5054271;28;20359;-84
2022/02/21 04:22:36;;;;;;;1.30;0.80;;;9.80;99.90;;;;;;5056254;28;20520;-82
2022/02/21 04:25:06;;;;;;;1.47;0.80;;;9.70;99.90;;;;;;5056517;28;20025;-83
2022/02/21 04:27:45;;;;;;;2.27;1.00;;;9.70;99.90;;;;;;5056262;28;20029;-84
2022/02/21 04:30:12;;;;;;;4.37;0.80;;;9.70;99.90;;;;;;5056379;28;20047;-82
2022/02/21 04:32:39;;;;;;;1.27;0.73;;;9.60;99.90;;;;;;5056163;28;20024;-83
2022/02/21 04:35:06;;;;;;;2.30;1.10;;;9.60;99.90;;;;;;5056246;28;20354;-83
2022/02/21 04:37:32;;;;;;;1.47;0.83;;;9.40;99.90;;;;;;5056373;28;20071;-83
2022/02/21 04:39:58;;;;;;;1.80;0.90;;;9.40;99.90;;;;;;5054173;28;20441;-82
2022/02/21 04:42:23;;;;;;;1.10;0.90;;;9.30;99.90;;;;;;5055441;28;20351;-83
2022/02/21 04:44:50;;;;;;;2.70;0.87;;;9.30;99.90;;;;;;5053847;28;20092;-83
2022/02/21 04:47:15;;;;;;;2.03;0.80;;;9.30;99.90;;;;;;5041628;28;20037;-82
2022/02/21 04:49:41;;;;;;;2.00;0.80;;;9.20;99.90;;;;;;5035493;28;20534;-83
2022/02/21 04:52:07;;;;;;;2.23;0.80;;;9.10;99.90;;;;;;5035609;28;20470;-82
2022/02/21 04:54:32;;;;;;;1.07;0.83;;;9.10;99.90;;;;;;5035270;28;20535;-83
2022/02/21 04:56:58;;;;;;;0.73;0.70;;;9.00;99.90;;;;;;5035256;28;20038;-82
2022/02/21 04:59:24;;;;;;;1.77;1.00;;;8.90;99.90;;;;;;5035376;28;20037;-82
2022/02/21 05:01:49;;;;;;;1.17;0.80;;;8.80;99.90;;;;;;5035183;28;20113;-83
2022/02/21 05:04:15;;;;;;;2.73;0.87;;;8.80;99.90;;;;;;5035461;28;20083;-82
2022/02/21 05:06:40;;;;;;;2.07;0.90;;;8.80;99.90;;;;;;5035232;28;20116;-82
2022/02/21 05:09:06;;;;;;;1.60;0.80;;;8.70;99.90;;;;;;5033763;28;20029;-82
2022/02/21 05:11:31;;;;;;;2.00;0.73;;;8.70;99.90;;;;;;5034951;28;20435;-82
2022/02/21 05:13:57;;;;;;;1.40;0.83;;;8.60;99.90;;;;;;5036141;28;20113;-82
2022/02/21 05:16:22;;;;;;;2.60;0.80;;;8.50;99.90;;;;;;5041254;28;20091;-84
2022/02/21 05:18:48;;;;;;;2.10;0.77;;;8.50;99.90;;;;;;5040271;28;20155;-83
2022/02/21 05:21:13;;;;;;;0.80;0.80;;;8.50;99.90;;;;;;5042691;28;20041;-84
2022/02/21 05:23:39;;;;;;;7.20;1.27;;;8.50;99.90;;;;;;5041658;28;20085;-83
2022/02/21 05:26:05;;;;;;;2.27;0.70;;;8.50;99.90;;;;;;5057361;28;20397;-82
2022/02/21 05:28:31;;;;;;;4.57;0.80;;;8.60;99.90;;;;;;5043078;28;20081;-82
2022/02/21 05:30:56;;;;;;;1.80;0.70;;;8.60;99.90;;;;;;5043710;28;20113;-83
2022/02/21 05:33:22;;;;;;;2.07;0.70;;;8.50;99.90;;;;;;5042850;28;20051;-83
2022/02/21 05:35:47;;;;;;;1.13;0.93;;;8.50;99.90;;;;;;5043013;28;20037;-83
2022/02/21 05:38:13;;;;;;;2.77;0.90;;;8.50;99.90;;;;;;5042566;28;20163;-83
2022/02/21 05:40:39;;;;;;;1.03;0.73;;;8.50;99.90;;;;;;5043311;28;20037;-82
2022/02/21 05:43:04;;;;;;;2.00;0.70;;;8.50;99.90;;;;;;5044303;28;20187;-82
2022/02/21 05:45:30;;;;;;;1.93;1.10;;;8.60;99.90;;;;;;5043576;28;20121;-82
2022/02/21 05:47:56;;;;;;;4.03;0.70;;;8.60;99.90;;;;;;5043626;28;20112;-83
2022/02/21 05:50:21;;;;;;;1.03;0.90;;;8.70;99.90;;;;;;5059647;28;20090;-83
2022/02/21 05:52:47;;;;;;;0.80;0.70;;;8.70;99.90;;;;;;5048975;28;20029;-83
2022/02/21 05:55:12;;;;;;;0.97;0.60;;;8.50;99.90;;;;;;5051028;28;20025;-82
2022/02/21 05:57:38;;;;;;;1.87;0.70;;;7.40;99.90;;;;;;5052553;28;20033;-81
2022/02/21 06:00:06;;;;;;;1.53;0.70;;;6.00;99.90;;;;;;5054833;28;20077;-81
2022/02/21 06:02:31;;;;;;;0.87;0.60;;;4.70;99.90;;;;;;5039143;28;20037;-79
2022/02/21 06:04:57;;;;;;;1.77;0.80;;;3.90;99.90;;;;;;5035157;28;20036;-80
2022/02/21 06:07:23;;;;;;;0.80;0.80;;;3.30;99.90;;;;;;5044216;28;20099;-80
2022/02/21 06:09:48;;;;;;;2.20;1.00;;;3.00;99.90;;;;;;5050974;28;20033;-72
2022/02/21 06:12:14;;;;;;;3.37;0.80;;;2.70;99.90;;;;;;5055091;28;20059;-72
2022/02/21 06:14:40;;;;;;;2.23;1.20;;;2.60;99.90;;;;;;5054663;28;20484;-72
2022/02/21 06:17:05;;;;;;;1.33;0.70;;;2.40;99.90;;;;;;5055122;28;20397;-72
2022/02/21 06:19:31;;;;;;;0.70;0.70;;;2.30;99.90;;;;;;5054348;28;20488;-71
2022/02/21 06:21:57;;;;;;;3.97;1.17;;;2.20;99.90;;;;;;5054521;28;20505;-72
2022/02/21 06:24:24;;;;;;;1.77;1.00;;;2.20;99.90;;;;;;5054258;28;20112;-72
2022/02/21 06:26:50;;;;;;;2.97;0.90;;;2.00;99.90;;;;;;5054438;28;20426;-73
2022/02/21 06:29:15;;;;;;;5.13;1.93;;;2.00;99.90;;;;;;5052911;28;20037;-81
2022/02/21 06:31:41;;;;;;;6.20;1.00;;;2.10;99.90;;;;;;5051505;28;20104;-80
2022/02/21 06:34:07;;;;;;;3.07;1.50;;;2.10;99.90;;;;;;5047299;28;20076;-81
2022/02/21 06:36:34;;;;;;;1.50;0.97;;;2.10;99.90;;;;;;5042147;28;20363;-81
2022/02/21 06:38:59;;;;;;;5.37;1.57;;;2.20;99.90;;;;;;5039812;28;20038;-81
2022/02/21 06:41:25;;;;;;;2.40;1.07;;;2.20;99.90;;;;;;5030814;28;20032;-81
2022/02/21 06:43:51;;;;;;;6.23;1.40;;;2.20;99.90;;;;;;5046170;28;20029;-81
2022/02/21 06:46:17;;;;;;;2.47;1.10;;;2.20;99.90;;;;;;5036903;28;20102;-81
2022/02/21 06:48:44;;;;;;;2.97;1.17;;;2.30;99.90;;;;;;5034829;28;20083;-81
2022/02/21 06:51:10;;;;;;;3.53;1.20;;;2.40;99.90;;;;;;5037232;28;20469;-81
2022/02/21 06:53:35;;;;;;;2.83;1.30;;;2.40;99.90;;;;;;5050960;28;20033;-81
2022/02/21 06:56:01;;;;;;;3.27;1.10;;;2.40;99.90;;;;;;5051077;28;20057;-81
2022/02/21 06:58:27;;;;;;;1.97;1.20;;;2.40;99.90;;;;;;5050936;28;20091;-82
2022/02/21 07:00:53;;;;;;;6.97;1.90;;;2.40;99.90;;;;;;5051282;28;20370;-82
2022/02/21 07:03:19;;;;;;;1.30;0.97;;;2.40;99.90;;;;;;5050559;28;20120;-82
2022/02/21 07:05:44;;;;;;;2.60;1.20;;;2.40;99.90;;;;;;5050840;28;20075;-82
2022/02/21 07:08:10;;;;;;;2.57;1.00;;;2.40;99.90;;;;;;5050601;28;20063;-81
2022/02/21 07:10:36;;;;;;;4.10;1.43;;;2.30;99.90;;;;;;5050877;28;20021;-81
2022/02/21 07:13:02;;;;;;;5.60;1.40;;;2.30;99.90;;;;;;5050820;28;20539;-82
2022/02/21 07:15:28;;;;;;;1.73;1.10;;;2.20;99.90;;;;;;5045463;28;20039;-82
2022/02/21 07:17:54;;;;;;;3.23;1.13;;;2.30;99.90;;;;;;5046336;28;20033;-82
2022/02/21 07:20:20;;;;;;;4.00;1.40;;;2.30;99.90;;;;;;5049329;28;20113;-82
2022/02/21 07:22:46;;;;;;;3.30;1.30;;;2.30;99.90;;;;;;5049922;28;20037;-83
2022/02/21 07:25:14;;;;;;;2.50;1.07;;;2.30;99.90;;;;;;5049302;28;20032;-83
2022/02/21 07:27:48;;;;;;;3.27;1.27;;;2.40;99.90;;;;;;5048437;28;20060;-82
2022/02/21 07:30:15;;;;;;;1.23;1.00;;;2.50;99.90;;;;;;5048002;28;20386;-82
2022/02/21 07:32:42;;;;;;;2.67;1.23;;;2.50;99.90;;;;;;5047205;28;20033;-82
2022/02/21 07:35:08;;;;;;;4.30;1.53;;;2.60;99.90;;;;;;5047802;28;20040;-82
2022/02/21 07:37:34;;;;;;;2.87;1.40;;;2.60;99.90;;;;;;5048086;28;20029;-83
2022/02/21 07:39:59;;;;;;;2.30;1.30;;;2.70;99.90;;;;;;5048624;28;20051;-82
2022/02/21 07:42:25;;;;;;;4.27;1.20;;;2.70;99.90;;;;;;5048657;28;20510;-83
2022/02/21 07:44:52;;;;;;;3.10;1.30;;;2.60;99.90;;;;;;5047543;28;20394;-82
2022/02/21 07:47:18;;;;;;;4.33;1.20;;;2.70;99.90;;;;;;5046788;28;20553;-83
2022/02/21 07:49:44;;;;;;;2.97;1.17;;;2.70;99.90;;;;;;5047936;28;20128;-83
2022/02/21 07:52:09;;;;;;;2.60;1.10;;;2.60;99.90;;;;;;5048623;28;20123;-83
2022/02/21 07:54:35;;;;;;;1.97;1.10;;;2.60;99.90;;;;;;5048625;28;20447;-83
2022/02/21 07:57:01;;;;;;;3.43;1.20;;;2.70;99.90;;;;;;5044264;28;20029;-82
2022/02/21 07:59:28;;;;;;;2.30;1.03;;;2.70;99.90;;;;;;5044398;28;20120;-83
2022/02/21 08:01:54;;;;;;;4.00;1.30;;;2.60;99.90;;;;;;5045081;28;20426;-76
2022/02/21 08:04:19;;;;;;;2.40;1.37;;;2.80;99.90;;;;;;5044744;28;20037;-84
2022/02/21 08:06:46;;;;;;;3.40;1.20;;;2.80;99.90;;;;;;5044457;28;20029;-84
2022/02/21 08:09:12;;;;;;;1.43;1.03;;;2.80;99.90;;;;;;5045023;28;20028;-83
2022/02/21 08:11:38;;;;;;;4.13;1.17;;;2.90;99.90;;;;;;5044209;28;20570;-82
2022/02/21 08:14:04;;;;;;;3.87;1.47;;;2.90;99.90;;;;;;5042951;28;20068;-82
2022/02/21 08:16:30;;;;;;;3.13;1.50;;;3.00;99.90;;;;;;5044321;28;20029;-83
2022/02/21 08:18:56;;;;;;;5.53;2.13;;;3.00;99.90;;;;;;5045113;28;20485;-82
2022/02/21 08:21:21;;;;;;;4.73;2.00;;;3.10;99.90;;;;;;5044737;28;20052;-83
2022/02/21 08:23:47;;;;;;;3.70;1.30;;;3.20;99.90;;;;;;5031101;28;20182;-81
2022/02/21 08:26:12;;;;;;;3.87;1.40;;;3.20;99.90;;;;;;5029968;28;20045;-82
2022/02/21 08:28:38;;;;;;;2.67;1.40;;;3.30;99.90;;;;;;5031231;28;20021;-82
2022/02/21 08:31:04;;;;;;;1.50;1.10;;;3.30;99.90;;;;;;5033356;28;20825;-82
2022/02/21 08:33:29;;;;;;;4.83;1.60;;;3.30;99.90;;;;;;5043797;28;20474;-82
2022/02/21 08:35:55;;;;;;;4.43;1.20;;;3.40;99.90;;;;;;5043393;28;20393;-82
2022/02/21 08:38:20;;;;;;;4.80;1.43;;;3.30;99.90;;;;;;5047845;28;20036;-74
2022/02/21 08:40:48;;;;;;;4.63;1.20;;;3.40;99.90;;;;;;5049787;28;20037;-82
2022/02/21 08:43:14;;;;;;;5.23;1.70;;;3.50;99.90;;;;;;5049943;28;20029;-75
2022/02/21 08:45:40;;;;;;;4.53;1.37;;;3.60;99.90;;;;;;5052370;28;20171;-75
2022/02/21 08:48:05;;;;;;;3.60;1.30;;;3.50;99.90;;;;;;5052483;28;20116;-74
2022/02/21 08:50:31;;;;;;;4.53;1.23;;;3.70;99.90;;;;;;5051776;28;20025;-81
2022/02/21 08:52:57;;;;;;;4.07;1.20;;;3.70;99.90;;;;;;5046994;28;20477;-76
2022/02/21 08:55:22;;;;;;;1.73;1.10;;;3.90;99.90;;;;;;5043020;28;20037;-76
2022/02/21 08:57:48;;;;;;;2.97;1.40;;;4.00;99.90;;;;;;5042137;28;20035;-76
2022/02/21 09:00:15;;;;;;;4.93;1.33;;;4.00;99.90;;;;;;5042151;28;20500;-82
2022/02/21 09:02:43;;;;;;;6.63;1.50;;;4.10;99.90;;;;;;5041701;28;20034;-84
2022/02/21 09:05:10;;;;;;;5.43;1.50;;;4.20;99.90;;;;;;5042680;28;20029;-83
2022/02/21 09:07:35;;;;;;;3.47;1.20;;;4.20;99.90;;;;;;5048037;28;20036;-83
2022/02/21 09:10:01;;;;;;;3.90;1.70;;;4.30;99.90;;;;;;5051945;28;20131;-83
2022/02/21 09:12:27;;;;;;;3.27;1.43;;;4.40;99.90;;;;;;5051329;28;20386;-82
2022/02/21 09:14:56;;;;;;;4.60;1.60;;;4.40;99.90;;;;;;5052836;28;20021;-74
2022/02/21 09:17:22;;;;;;;4.33;1.20;;;4.40;99.90;;;;;;5055862;28;20033;-73
2022/02/21 09:19:47;;;;;;;3.70;1.20;;;4.30;99.90;;;;;;5055937;28;20064;-74
2022/02/21 09:22:13;;;;;;;4.43;1.50;;;4.50;99.90;;;;;;5054497;28;20082;-74
2022/02/21 09:24:39;;;;;;;4.73;1.63;;;4.60;99.90;;;;;;5056244;28;20064;-73
2022/02/21 09:27:04;;;;;;;3.57;1.10;;;4.70;99.90;;;;;;5054908;28;20029;-74
2022/02/21 09:29:30;;;;;;;3.40;1.33;;;4.60;99.90;;;;;;5055552;28;20025;-74
2022/02/21 09:31:58;;;;;;;3.10;1.53;;;4.60;99.90;;;;;;5055937;28;20040;-74
2022/02/21 09:34:24;;;;;;;3.70;1.50;;;4.60;99.90;;;;;;5054924;28;20021;-75
2022/02/21 09:36:49;;;;;;;5.10;1.20;;;4.70;99.90;;;;;;5055428;28;20484;-74
2022/02/21 09:39:15;;;;;;;2.33;1.20;;;4.70;99.90;;;;;;5055633;28;20029;-74
2022/02/21 09:41:41;;;;;;;4.07;1.47;;;4.60;99.90;;;;;;5055613;28;20070;-75
2022/02/21 09:44:09;;;;;;;8.20;1.50;;;4.50;99.90;;;;;;5054053;28;20040;-74
2022/02/21 09:46:36;;;;;;;5.27;1.47;;;4.40;99.90;;;;;;5055035;28;20545;-74
2022/02/21 09:49:02;;;;;;;5.30;1.87;;;4.50;99.90;;;;;;5055676;28;20032;-74
2022/02/21 09:51:28;;;;;;;3.17;1.20;;;4.40;99.90;;;;;;5053966;28;20029;-74
2022/02/21 09:53:53;;;;;;;3.53;1.13;;;4.40;99.90;;;;;;5055389;28;20028;-73
2022/02/21 09:56:19;;;;;;;3.80;1.30;;;4.40;99.90;;;;;;5055181;28;20033;-73
2022/02/21 09:58:45;;;;;;;6.57;1.37;;;4.50;99.90;;;;;;5055562;28;20473;-73
2022/02/21 10:01:11;;;;;;;4.10;1.30;;;4.60;99.90;;;;;;5055362;28;20075;-73
2022/02/21 10:03:36;;;;;;;5.90;1.50;;;4.80;99.90;;;;;;5055145;28;20409;-73
2022/02/21 10:06:12;;;;;;;5.83;1.30;;;4.80;99.90;;;;;;5054951;28;20029;-74
2022/02/21 10:08:50;;;;;;;4.13;1.73;;;4.90;99.90;;;;;;5053490;28;20033;-73
2022/02/21 10:11:28;;;;;;;7.93;2.00;;;5.00;99.90;;;;;;5050169;28;20032;-73
2022/02/21 10:14:08;;;;;;;7.13;1.70;;;5.20;99.90;;;;;;5054845;28;20100;-74
2022/02/21 10:16:43;;;;;;;7.30;1.33;;;5.40;99.90;;;;;;5054316;28;20053;-74
2022/02/21 10:19:12;;;;;;;6.13;1.70;;;5.50;99.90;;;;;;5033708;28;20080;-73
2022/02/21 10:22:05;;;;;;;11.87;2.00;;;5.60;99.90;;;;;;5049441;28;20052;-74
2022/02/21 10:24:49;;;;;;;6.20;1.27;;;5.80;99.90;;;;;;5054614;28;20108;-74
2022/02/21 10:27:24;;;;;;;9.20;2.00;;;6.00;99.90;;;;;;5054411;28;20470;-74
2022/02/21 10:29:54;;;;;;;4.45;1.83;;;6.30;99.90;;;;;;5054461;28;20021;-74
2022/02/21 10:32:22;;;;;;;4.93;1.80;;;6.50;99.90;;;;;;5051778;28;20033;-76
2022/02/21 10:34:49;;;;;;;4.23;1.30;;;6.70;99.90;;;;;;5038893;28;20900;-76
2022/02/21 10:37:20;;;;;;;3.67;1.10;;;7.00;99.90;;;;;;5045318;28;20036;-76
2022/02/21 10:39:46;;;;;;;4.27;1.63;;;7.00;99.90;;;;;;5047158;28;20032;-76
2022/02/21 10:42:11;;;;;;;3.23;1.20;;;6.80;99.90;;;;;;5047375;28;20383;-76
2022/02/21 10:44:39;;;;;;;4.37;1.20;;;6.40;99.90;;;;;;5047315;28;20021;-76
2022/02/21 10:47:08;;;;;;;5.33;1.43;;;6.30;99.90;;;;;;5038827;28;20045;-76
2022/02/21 10:49:38;;;;;;;4.30;1.13;;;6.10;99.90;;;;;;5027237;28;20160;-76
2022/02/21 10:52:04;;;;;;;8.27;1.83;;;6.00;99.90;;;;;;5045552;28;20029;-76
2022/02/21 10:54:38;;;;;;;4.43;1.30;;;5.90;99.90;;;;;;5045092;28;20028;-76
2022/02/21 10:57:08;;;;;;;3.87;1.23;;;5.90;99.90;;;;;;5046961;28;20417;-76
2022/02/21 10:59:34;;;;;;;5.73;2.13;;;5.80;99.90;;;;;;5044215;28;20079;-76
2022/02/21 11:02:03;;;;;;;6.83;1.47;;;5.80;99.90;;;;;;5036305;28;20072;-76
2022/02/21 11:04:29;;;;;;;7.07;1.80;;;5.80;99.90;;;;;;5039774;28;20025;-76
2022/02/21 11:06:57;;;;;;;5.67;1.87;;;5.80;99.90;;;;;;5050552;28;20032;-76
2022/02/21 11:09:26;;;;;;;2.30;1.33;;;5.90;99.90;;;;;;5050558;28;20018;-76
2022/02/21 11:11:53;;;;;;;6.83;2.07;;;5.90;99.90;;;;;;5051465;28;20032;-76
2022/02/21 11:14:25;;;;;;;8.20;2.03;;;6.20;99.90;;;;;;5059690;28;20021;-76
2022/02/21 11:16:51;;;;;;;6.00;1.70;;;6.30;99.90;;;;;;5058115;28;20025;-76
2022/02/21 11:19:18;;;;;;;6.87;1.70;;;6.30;99.90;;;;;;5059327;28;20473;-76
2022/02/21 11:21:44;;;;;;;6.50;1.63;;;6.30;99.90;;;;;;5059566;28;20107;-76
2022/02/21 11:24:12;;;;;;;6.67;1.57;;;6.40;99.90;;;;;;5060123;28;20025;-76
2022/02/21 11:26:47;;;;;;;7.70;1.83;;;6.40;99.90;;;;;;5054004;28;20025;-76
2022/02/21 11:29:24;;;;;;;7.57;2.20;;;6.40;99.90;;;;;;5047372;28;20419;-76
2022/02/21 11:31:49;;;;;;;6.27;1.60;;;6.40;99.90;;;;;;5047050;28;20542;-76
2022/02/21 11:34:15;;;;;;;4.97;2.00;;;6.30;99.90;;;;;;5049001;28;20020;-76
2022/02/21 11:36:57;;;;;;;4.17;1.50;;;6.40;99.90;;;;;;5050237;28;20025;-76
2022/02/21 11:39:28;;;;;;;6.80;1.83;;;6.60;99.90;;;;;;5053533;28;20025;-85
2022/02/21 11:42:06;;;;;;;7.77;2.07;;;6.90;99.90;;;;;;5053454;28;20033;-85
2022/02/21 11:44:47;;;;;;;5.97;1.70;;;7.10;99.90;;;;;;5054247;28;20025;-85
2022/02/21 11:47:33;;;;;;;7.03;1.73;;;7.40;99.90;;;;;;5054837;28;20116;-84
2022/02/21 11:50:01;;;;;;;5.87;1.63;;;7.50;99.90;;;;;;5053605;28;20124;-84
2022/02/21 11:52:37;;;;;;;7.03;1.70;;;7.80;99.90;;;;;;5054432;28;20440;-84
2022/02/21 11:55:29;;;;;;;6.67;1.60;;;8.10;99.90;;;;;;5054295;28;20025;-84
2022/02/21 11:57:59;;;;;;;8.00;1.73;;;8.50;99.90;;;;;;5054173;28;20029;-84
2022/02/21 12:00:45;;;;;;;5.63;1.70;;;8.50;99.90;;;;;;5054690;28;20116;-84
2022/02/21 12:03:21;;;;;;;5.13;1.60;;;8.30;99.90;;;;;;5052878;28;20032;-84
2022/02/21 12:06:06;;;;;;;5.67;1.60;;;8.00;99.90;;;;;;5054689;28;20094;-84
2022/02/21 12:08:32;;;;;;;9.50;1.80;;;7.80;99.90;;;;;;5053271;28;20098;-84
2022/02/21 12:11:03;;;;;;;4.40;1.40;;;7.50;99.90;;;;;;5053397;28;20033;-84
2022/02/21 12:13:34;;;;;;;6.97;1.47;;;7.50;99.90;;;;;;5051874;28;20036;-84
2022/02/21 12:16:05;;;;;;;10.20;2.00;;;7.50;99.90;;;;;;5056560;28;20021;-84
2022/02/21 12:18:30;;;;;;;7.37;1.80;;;7.60;99.90;;;;;;5054199;28;20027;-84
2022/02/21 12:21:24;;;;;;;5.70;1.60;;;7.90;99.90;;;;;;5055813;28;20096;-84
2022/02/21 12:23:54;;;;;;;4.80;1.50;;;7.90;99.90;;;;;;5053369;28;20021;-75
2022/02/21 12:26:23;;;;;;;7.37;1.80;;;8.10;99.90;;;;;;5051007;28;20024;-75
2022/02/21 12:29:15;;;;;;;7.80;1.97;;;8.10;99.90;;;;;;5052328;28;20017;-76
2022/02/21 12:31:56;;;;;;;6.93;1.80;;;7.90;99.90;;;;;;5052560;28;20365;-76
2022/02/21 12:34:24;;;;;;;9.43;1.70;;;7.90;99.90;;;;;;5052495;28;20396;-75
2022/02/21 12:36:51;;;;;;;7.87;2.03;;;7.80;99.90;;;;;;5051896;28;20029;-76
2022/02/21 12:39:23;;;;;;;6.43;1.70;;;7.60;99.90;;;;;;5052236;28;20033;-76
2022/02/21 12:41:52;;;;;;;7.70;1.77;;;7.40;99.90;;;;;;5055913;28;20025;-76
2022/02/21 12:44:18;;;;;;;7.77;1.73;;;7.50;99.90;;;;;;5056280;28;20079;-76
2022/02/21 12:46:54;;;;;;;5.97;1.63;;;7.80;99.90;;;;;;5055874;28;20052;-75
2022/02/21 12:49:29;;;;;;;7.67;2.00;;;7.80;99.90;;;;;;5056238;28;20151;-76
2022/02/21 12:51:56;;;;;;;8.00;2.30;;;7.80;99.90;;;;;;5056080;28;20025;-75
2022/02/21 12:54:23;;;;;;;8.13;1.83;;;7.80;99.90;;;;;;5056545;28;20025;-75
2022/02/21 12:56:53;;;;;;;6.07;1.70;;;7.70;99.90;;;;;;5056127;28;20052;-76